createdAt,value
2023-05-25T00:01:02.792Z,74.41
2023-05-25T00:01:57.213Z,74.31
2023-05-25T00:02:57.321Z,74.31
2023-05-25T00:03:57.138Z,74.60
2023-05-25T00:04:57.033Z,74.79
2023-05-25T00:05:56.979Z,74.89
2023-05-25T00:06:56.936Z,74.41
2023-05-25T00:07:56.870Z,74.41
2023-05-25T00:08:56.827Z,74.31
2023-05-25T00:09:56.765Z,74.41
2023-05-25T00:10:56.761Z,74.79
2023-05-25T00:11:56.656Z,74.60
2023-05-25T00:12:56.619Z,74.51
2023-05-25T00:13:56.553Z,75.08
2023-05-25T00:14:56.506Z,74.60
2023-05-25T00:15:56.451Z,74.51
2023-05-25T00:16:56.440Z,74.79
2023-05-25T00:17:56.396Z,74.69
2023-05-25T00:18:56.302Z,74.79
2023-05-25T00:19:56.253Z,74.12
2023-05-25T00:20:56.186Z,74.31
2023-05-25T00:21:56.130Z,74.51
2023-05-25T00:22:56.094Z,74.31
2023-05-25T00:23:56.059Z,74.12
2023-05-25T00:24:55.985Z,74.02
2023-05-25T00:25:55.923Z,74.41
2023-05-25T00:26:55.868Z,74.31
2023-05-25T00:27:55.817Z,74.51
2023-05-25T00:28:55.785Z,74.51
2023-05-25T00:29:55.710Z,74.31
2023-05-25T00:30:55.711Z,74.41
2023-05-25T00:31:55.636Z,74.22
2023-05-25T00:32:55.635Z,74.12
2023-05-25T00:33:55.500Z,74.18
2023-05-25T00:34:55.460Z,74.12
2023-05-25T00:35:55.397Z,74.08
2023-05-25T00:36:55.343Z,74.08
2023-05-25T00:37:55.288Z,74.22
2023-05-25T00:38:55.249Z,74.60
2023-05-25T00:39:55.185Z,74.22
2023-05-25T00:40:55.129Z,74.12
2023-05-25T00:41:55.088Z,73.90
2023-05-25T00:42:55.031Z,74.27
2023-05-25T00:43:54.978Z,74.12
2023-05-25T00:44:54.917Z,74.08
2023-05-25T00:45:54.868Z,74.08
2023-05-25T00:46:54.858Z,74.60
2023-05-25T00:47:54.824Z,74.69
2023-05-25T00:48:54.718Z,74.22
2023-05-25T00:49:54.657Z,74.18
2023-05-25T00:50:54.606Z,74.60
2023-05-25T00:51:54.565Z,74.37
2023-05-25T00:52:54.508Z,73.99
2023-05-25T00:53:54.448Z,74.08
2023-05-25T00:54:54.432Z,74.12
2023-05-25T00:55:54.336Z,74.37
2023-05-25T00:56:54.300Z,74.08
2023-05-25T00:57:54.232Z,73.83
2023-05-25T00:58:54.181Z,74.27
2023-05-25T00:59:54.128Z,74.02
2023-05-25T01:00:54.087Z,74.22
2023-05-25T01:01:54.155Z,74.08
2023-05-25T01:02:54.063Z,73.99
2023-05-25T01:03:54.218Z,73.99
2023-05-25T01:04:53.869Z,74.08
2023-05-25T01:05:53.813Z,73.99
2023-05-25T01:06:53.762Z,73.99
2023-05-25T01:07:53.704Z,74.08
2023-05-25T01:08:53.655Z,74.18
2023-05-25T01:09:53.614Z,74.18
2023-05-25T01:10:53.562Z,74.08
2023-05-25T01:11:53.506Z,74.18
2023-05-25T01:12:53.465Z,74.18
2023-05-25T01:13:53.390Z,74.37
2023-05-25T01:14:53.343Z,74.27
2023-05-25T01:15:53.288Z,74.47
2023-05-25T01:16:53.464Z,74.08
2023-05-25T01:17:53.195Z,74.18
2023-05-25T01:18:53.128Z,74.18
2023-05-25T01:20:08.884Z,73.99
2023-05-25T01:20:53.078Z,74.18
2023-05-25T01:21:52.972Z,74.08
2023-05-25T01:22:52.921Z,74.18
2023-05-25T01:23:52.936Z,74.47
2023-05-25T01:24:52.806Z,74.18
2023-05-25T01:25:52.755Z,74.47
2023-05-25T01:26:52.717Z,74.18
2023-05-25T01:27:52.657Z,74.18
2023-05-25T01:28:52.597Z,74.27
2023-05-25T01:29:52.557Z,74.08
2023-05-25T01:30:52.500Z,74.57
2023-05-25T01:31:52.462Z,74.18
2023-05-25T01:32:52.401Z,74.57
2023-05-25T01:33:52.329Z,74.08
2023-05-25T01:34:52.280Z,74.27
2023-05-25T01:35:52.229Z,74.37
2023-05-25T01:36:52.177Z,74.27
2023-05-25T01:37:52.132Z,74.18
2023-05-25T01:38:52.071Z,73.80
2023-05-25T01:39:52.014Z,73.80
2023-05-25T01:40:51.963Z,74.27
2023-05-25T01:41:51.926Z,74.08
2023-05-25T01:42:51.877Z,74.08
2023-05-25T01:43:51.799Z,73.90
2023-05-25T01:44:51.750Z,74.08
2023-05-25T01:45:51.810Z,73.80
2023-05-25T01:46:51.645Z,73.80
2023-05-25T01:47:51.635Z,73.51
2023-05-25T01:48:51.545Z,73.99
2023-05-25T01:49:51.489Z,73.80
2023-05-25T01:50:51.431Z,73.99
2023-05-25T01:51:51.401Z,73.80
2023-05-25T01:52:51.328Z,73.80
2023-05-25T01:53:51.272Z,74.08
2023-05-25T01:54:51.223Z,74.18
2023-05-25T01:55:51.172Z,73.80
2023-05-25T01:56:51.145Z,73.70
2023-05-25T01:57:51.069Z,74.08
2023-05-25T01:58:51.025Z,74.18
2023-05-25T01:59:50.977Z,74.27
2023-05-25T02:00:50.936Z,74.18
2023-05-25T02:01:53.197Z,74.27
2023-05-25T02:02:50.814Z,74.18
2023-05-25T02:03:50.807Z,74.37
2023-05-25T02:04:50.707Z,74.18
2023-05-25T02:05:50.659Z,74.37
2023-05-25T02:06:50.590Z,73.70
2023-05-25T02:07:50.530Z,74.27
2023-05-25T02:08:50.480Z,74.08
2023-05-25T02:09:50.429Z,73.80
2023-05-25T02:10:50.372Z,74.18
2023-05-25T02:11:50.320Z,74.18
2023-05-25T02:12:50.266Z,74.18
2023-05-25T02:13:50.217Z,74.37
2023-05-25T02:14:50.259Z,74.08
2023-05-25T02:15:50.115Z,73.80
2023-05-25T02:16:50.055Z,73.61
2023-05-25T02:17:50.015Z,73.41
2023-05-25T02:18:49.952Z,73.51
2023-05-25T02:19:49.892Z,74.08
2023-05-25T02:20:49.847Z,73.80
2023-05-25T02:21:49.801Z,74.18
2023-05-25T02:22:49.738Z,73.61
2023-05-25T02:23:49.685Z,73.41
2023-05-25T02:24:49.629Z,73.99
2023-05-25T02:25:49.575Z,73.80
2023-05-25T02:26:49.530Z,73.80
2023-05-25T02:27:49.470Z,74.27
2023-05-25T02:28:49.422Z,74.18
2023-05-25T02:29:49.368Z,74.08
2023-05-25T02:30:49.331Z,74.18
2023-05-25T02:31:49.335Z,74.37
2023-05-25T02:32:49.228Z,74.37
2023-05-25T02:33:49.160Z,74.57
2023-05-25T02:34:49.105Z,74.08
2023-05-25T02:35:49.054Z,74.18
2023-05-25T02:36:49.001Z,74.18
2023-05-25T02:37:50.986Z,73.99
2023-05-25T02:38:48.891Z,74.08
2023-05-25T02:39:48.847Z,74.08
2023-05-25T02:40:48.784Z,74.08
2023-05-25T02:41:48.729Z,73.90
2023-05-25T02:42:48.756Z,74.08
2023-05-25T02:43:48.625Z,73.99
2023-05-25T02:44:48.597Z,74.37
2023-05-25T02:45:48.535Z,74.08
2023-05-25T02:46:48.499Z,74.18
2023-05-25T02:47:48.447Z,74.18
2023-05-25T02:48:48.356Z,74.27
2023-05-25T02:49:48.310Z,74.47
2023-05-25T02:50:48.261Z,74.47
2023-05-25T02:51:48.209Z,74.47
2023-05-25T02:52:48.156Z,74.18
2023-05-25T02:53:48.094Z,74.37
2023-05-25T02:54:48.064Z,74.37
2023-05-25T02:55:47.990Z,74.18
2023-05-25T02:56:47.946Z,74.18
2023-05-25T02:57:47.884Z,74.27
2023-05-25T02:58:47.829Z,74.18
2023-05-25T02:59:47.773Z,73.99
2023-05-25T03:00:47.745Z,73.80
2023-05-25T03:01:47.664Z,74.37
2023-05-25T03:02:47.757Z,74.47
2023-05-25T03:03:47.604Z,73.80
2023-05-25T03:04:47.510Z,74.27
2023-05-25T03:05:47.459Z,74.18
2023-05-25T03:06:47.406Z,74.08
2023-05-25T03:07:47.350Z,74.27
2023-05-25T03:08:47.293Z,74.27
2023-05-25T03:09:47.258Z,74.08
2023-05-25T03:10:47.210Z,74.18
2023-05-25T03:11:47.141Z,73.99
2023-05-25T03:12:47.085Z,74.08
2023-05-25T03:13:47.034Z,74.18
2023-05-25T03:14:46.979Z,74.18
2023-05-25T03:15:46.938Z,74.37
2023-05-25T03:16:46.900Z,74.37
2023-05-25T03:17:46.872Z,74.27
2023-05-25T03:18:46.799Z,73.90
2023-05-25T03:19:46.726Z,74.18
2023-05-25T03:20:46.662Z,74.18
2023-05-25T03:21:46.614Z,74.37
2023-05-25T03:22:46.554Z,74.18
2023-05-25T03:23:46.506Z,74.27
2023-05-25T03:24:46.455Z,74.47
2023-05-25T03:25:46.615Z,74.47
2023-05-25T03:26:46.360Z,74.08
2023-05-25T03:27:46.283Z,74.18
2023-05-25T03:28:46.240Z,74.18
2023-05-25T03:29:46.188Z,73.99
2023-05-25T03:30:46.138Z,74.05
2023-05-25T03:31:46.118Z,74.05
2023-05-25T03:32:46.034Z,74.47
2023-05-25T03:33:45.973Z,74.05
2023-05-25T03:34:45.927Z,74.08
2023-05-25T03:35:46.032Z,74.27
2023-05-25T03:36:45.930Z,74.62
2023-05-25T03:37:45.865Z,74.37
2023-05-25T03:38:45.726Z,74.27
2023-05-25T03:39:45.661Z,74.27
2023-05-25T03:40:45.597Z,74.24
2023-05-25T03:41:45.549Z,74.52
2023-05-25T03:42:45.493Z,74.18
2023-05-25T03:43:45.444Z,75.04
2023-05-25T03:44:45.385Z,74.27
2023-05-25T03:45:45.662Z,75.01
2023-05-25T03:46:45.401Z,75.04
2023-05-25T03:47:45.271Z,74.27
2023-05-25T03:48:45.174Z,74.66
2023-05-25T03:49:45.124Z,74.82
2023-05-25T03:50:45.080Z,74.85
2023-05-25T03:51:45.013Z,74.82
2023-05-25T03:52:44.974Z,74.66
2023-05-25T03:53:44.924Z,74.66
2023-05-25T03:54:44.917Z,74.91
2023-05-25T03:55:45.094Z,75.01
2023-05-25T03:56:44.750Z,75.01
2023-05-25T03:57:44.705Z,74.66
2023-05-25T03:58:44.650Z,74.47
2023-05-25T03:59:44.594Z,74.85
2023-05-25T04:00:44.533Z,74.57
2023-05-25T04:01:44.486Z,74.66
2023-05-25T04:02:44.579Z,74.66
2023-05-25T04:03:44.673Z,74.62
2023-05-25T04:04:44.399Z,74.66
2023-05-25T04:05:44.440Z,74.62
2023-05-25T04:06:44.220Z,74.57
2023-05-25T04:07:44.162Z,74.62
2023-05-25T04:08:44.110Z,74.27
2023-05-25T04:09:44.059Z,74.52
2023-05-25T04:10:44.000Z,74.66
2023-05-25T04:11:43.957Z,74.85
2023-05-25T04:12:43.898Z,74.66
2023-05-25T04:13:43.860Z,74.43
2023-05-25T04:14:43.796Z,74.85
2023-05-25T04:15:43.977Z,74.85
2023-05-25T04:16:43.780Z,74.72
2023-05-25T04:17:43.685Z,75.20
2023-05-25T04:18:43.581Z,74.76
2023-05-25T04:19:43.523Z,75.14
2023-05-25T04:20:43.556Z,74.72
2023-05-25T04:21:43.418Z,74.91
2023-05-25T04:22:43.438Z,75.10
2023-05-25T04:23:43.313Z,75.01
2023-05-25T04:24:43.259Z,75.10
2023-05-25T04:25:43.289Z,75.20
2023-05-25T04:26:43.160Z,75.01
2023-05-25T04:27:43.104Z,75.01
2023-05-25T04:28:43.051Z,74.72
2023-05-25T04:29:42.992Z,75.04
2023-05-25T04:30:42.942Z,74.82
2023-05-25T04:31:42.895Z,74.72
2023-05-25T04:32:45.213Z,74.91
2023-05-25T04:33:42.781Z,74.91
2023-05-25T04:34:42.729Z,75.01
2023-05-25T04:35:42.813Z,75.10
2023-05-25T04:36:42.614Z,75.10
2023-05-25T04:37:42.568Z,74.91
2023-05-25T04:38:42.538Z,74.82
2023-05-25T04:39:42.463Z,74.91
2023-05-25T04:40:42.404Z,75.10
2023-05-25T04:41:42.352Z,75.20
2023-05-25T04:42:42.311Z,74.91
2023-05-25T04:43:56.506Z,74.91
2023-05-25T04:44:42.193Z,74.72
2023-05-25T04:45:42.191Z,75.10
2023-05-25T04:46:42.086Z,75.10
2023-05-25T04:47:42.036Z,75.01
2023-05-25T04:48:41.978Z,75.01
2023-05-25T04:49:41.943Z,75.01
2023-05-25T04:50:41.896Z,74.72
2023-05-25T04:51:41.823Z,75.20
2023-05-25T04:52:41.765Z,75.29
2023-05-25T04:53:41.712Z,75.10
2023-05-25T04:54:41.757Z,75.10
2023-05-25T04:55:41.638Z,75.39
2023-05-25T04:56:41.551Z,75.39
2023-05-25T04:57:41.498Z,75.68
2023-05-25T04:58:41.478Z,75.68
2023-05-25T04:59:41.402Z,75.68
2023-05-25T05:00:41.458Z,75.48
2023-05-25T05:01:41.499Z,76.06
2023-05-25T05:02:41.263Z,75.96
2023-05-25T05:03:41.304Z,75.77
2023-05-25T05:04:41.136Z,75.87
2023-05-25T05:05:41.083Z,75.77
2023-05-25T05:06:41.030Z,75.39
2023-05-25T05:07:40.972Z,75.68
2023-05-25T05:08:40.917Z,75.48
2023-05-25T05:09:40.866Z,75.39
2023-05-25T05:10:40.821Z,75.29
2023-05-25T05:11:40.762Z,75.29
2023-05-25T05:12:40.702Z,75.39
2023-05-25T05:13:40.652Z,75.48
2023-05-25T05:14:40.595Z,75.20
2023-05-25T05:15:40.543Z,75.58
2023-05-25T05:16:40.503Z,75.68
2023-05-25T05:19:12.046Z,75.39
2023-05-25T05:20:12.033Z,75.58
2023-05-25T05:22:04.866Z,75.48
2023-05-25T05:23:04.801Z,75.58
2023-05-25T05:24:57.653Z,75.48
2023-05-25T05:25:57.595Z,75.77
2023-05-25T05:27:50.455Z,75.77
2023-05-25T05:28:50.390Z,75.29
2023-05-25T05:30:43.254Z,75.20
2023-05-25T05:31:43.209Z,75.77
2023-05-25T05:33:36.129Z,75.68
2023-05-25T05:34:36.000Z,75.48
2023-05-25T05:36:28.861Z,75.48
2023-05-25T05:37:28.798Z,75.48
2023-05-25T05:39:21.685Z,75.58
2023-05-25T05:40:21.618Z,75.48
2023-05-25T05:42:14.500Z,75.58
2023-05-25T05:43:14.434Z,75.58
2023-05-25T05:45:07.288Z,75.68
2023-05-25T05:46:07.258Z,75.68
2023-05-25T05:48:00.153Z,76.15
2023-05-25T05:49:00.135Z,75.87
2023-05-25T05:50:52.901Z,76.44
2023-05-25T05:51:52.845Z,76.06
2023-05-25T05:53:45.702Z,75.96
2023-05-25T05:54:45.646Z,76.06
2023-05-25T05:56:39.016Z,76.25
2023-05-25T05:57:38.968Z,76.06
2023-05-25T05:58:38.902Z,76.25
2023-05-25T05:59:38.852Z,76.25
2023-05-25T06:00:38.810Z,76.15
2023-05-25T06:01:38.746Z,76.06
2023-05-25T06:02:41.356Z,75.87
2023-05-25T06:03:39.519Z,76.25
2023-05-25T06:04:38.669Z,76.15
2023-05-25T06:05:38.578Z,76.06
2023-05-25T06:06:38.474Z,76.06
2023-05-25T06:07:38.434Z,76.25
2023-05-25T06:08:38.366Z,76.35
2023-05-25T06:09:38.314Z,76.35
2023-05-25T06:10:38.265Z,76.25
2023-05-25T06:11:38.208Z,76.25
2023-05-25T06:12:38.157Z,76.15
2023-05-25T06:13:38.114Z,76.15
2023-05-25T06:14:38.047Z,76.15
2023-05-25T06:15:38.004Z,76.25
2023-05-25T06:16:37.978Z,76.35
2023-05-25T06:17:37.965Z,76.44
2023-05-25T06:18:37.833Z,76.25
2023-05-25T06:19:37.786Z,76.25
2023-05-25T06:20:37.953Z,76.64
2023-05-25T06:21:37.678Z,76.44
2023-05-25T06:22:37.633Z,76.64
2023-05-25T06:23:37.574Z,76.35
2023-05-25T06:24:37.517Z,76.44
2023-05-25T06:25:37.464Z,76.73
2023-05-25T06:26:37.412Z,76.64
2023-05-25T06:27:37.353Z,76.44
2023-05-25T06:28:37.303Z,76.73
2023-05-25T06:29:37.254Z,76.73
2023-05-25T06:30:37.194Z,76.54
2023-05-25T06:31:37.168Z,76.57
2023-05-25T06:32:37.111Z,76.82
2023-05-25T06:33:37.039Z,76.67
2023-05-25T06:34:38.278Z,76.35
2023-05-25T06:35:36.923Z,76.54
2023-05-25T06:36:36.871Z,76.35
2023-05-25T06:37:36.820Z,76.54
2023-05-25T06:38:36.780Z,76.35
2023-05-25T06:39:36.719Z,76.06
2023-05-25T06:40:36.658Z,76.35
2023-05-25T06:41:36.608Z,76.15
2023-05-25T06:42:36.553Z,76.25
2023-05-25T06:43:36.505Z,76.54
2023-05-25T06:44:36.529Z,76.73
2023-05-25T06:45:36.405Z,76.73
2023-05-25T06:46:36.469Z,76.35
2023-05-25T06:47:36.335Z,76.54
2023-05-25T06:48:36.240Z,77.21
2023-05-25T06:49:36.186Z,77.31
2023-05-25T06:50:36.134Z,76.92
2023-05-25T06:51:36.074Z,77.02
2023-05-25T06:52:36.023Z,77.02
2023-05-25T06:53:35.966Z,77.02
2023-05-25T06:54:35.916Z,77.31
2023-05-25T06:55:35.864Z,77.02
2023-05-25T06:56:35.809Z,76.77
2023-05-25T06:57:35.753Z,76.73
2023-05-25T06:58:35.699Z,77.02
2023-05-25T06:59:35.646Z,76.64
2023-05-25T07:00:35.598Z,76.92
2023-05-25T07:01:35.607Z,77.21
2023-05-25T07:02:35.534Z,77.40
2023-05-25T07:03:35.438Z,77.40
2023-05-25T07:04:35.409Z,77.31
2023-05-25T07:05:35.331Z,77.21
2023-05-25T07:06:35.285Z,77.31
2023-05-25T07:07:35.225Z,77.31
2023-05-25T07:08:35.169Z,77.15
2023-05-25T07:09:35.114Z,77.02
2023-05-25T07:10:35.098Z,77.02
2023-05-25T07:11:35.015Z,77.06
2023-05-25T07:12:34.962Z,76.96
2023-05-25T07:13:34.910Z,76.73
2023-05-25T07:14:34.848Z,76.73
2023-05-25T07:15:34.801Z,77.11
2023-05-25T07:16:34.819Z,77.69
2023-05-25T07:17:34.726Z,77.97
2023-05-25T07:18:34.642Z,77.69
2023-05-25T07:19:34.597Z,77.78
2023-05-25T07:20:34.601Z,77.44
2023-05-25T07:21:34.492Z,77.59
2023-05-25T07:22:34.425Z,78.11
2023-05-25T07:23:34.371Z,77.73
2023-05-25T07:24:34.322Z,77.69
2023-05-25T07:25:49.050Z,77.88
2023-05-25T07:26:34.224Z,77.78
2023-05-25T07:27:34.162Z,77.82
2023-05-25T07:28:34.114Z,77.78
2023-05-25T07:29:34.055Z,77.82
2023-05-25T07:30:34.012Z,77.82
2023-05-25T07:31:33.967Z,77.59
2023-05-25T07:32:33.936Z,77.82
2023-05-25T07:33:33.847Z,77.44
2023-05-25T07:34:33.796Z,77.73
2023-05-25T07:35:33.731Z,78.36
2023-05-25T07:36:33.683Z,77.44
2023-05-25T07:37:33.628Z,78.17
2023-05-25T07:38:33.578Z,77.63
2023-05-25T07:39:33.517Z,78.20
2023-05-25T07:40:33.467Z,77.78
2023-05-25T07:41:33.421Z,78.20
2023-05-25T07:42:33.445Z,78.02
2023-05-25T07:43:33.318Z,78.17
2023-05-25T07:44:33.256Z,78.11
2023-05-25T07:45:33.201Z,78.20
2023-05-25T07:46:33.178Z,78.07
2023-05-25T07:47:33.125Z,77.92
2023-05-25T07:48:33.102Z,78.02
2023-05-25T07:49:33.018Z,78.11
2023-05-25T07:50:32.933Z,78.20
2023-05-25T07:51:32.936Z,77.92
2023-05-25T07:52:32.832Z,78.07
2023-05-25T07:53:32.779Z,78.30
2023-05-25T07:54:32.752Z,78.27
2023-05-25T07:55:32.671Z,78.40
2023-05-25T07:56:32.622Z,78.30
2023-05-25T07:57:32.576Z,78.02
2023-05-25T07:58:32.540Z,77.88
2023-05-25T07:59:32.451Z,77.92
2023-05-25T08:00:32.404Z,77.97
2023-05-25T08:01:32.450Z,78.27
2023-05-25T08:02:32.377Z,78.36
2023-05-25T08:03:48.107Z,78.49
2023-05-25T08:04:32.270Z,78.02
2023-05-25T08:05:32.175Z,78.07
2023-05-25T08:06:32.089Z,77.97
2023-05-25T08:07:32.030Z,78.02
2023-05-25T08:08:31.976Z,78.11
2023-05-25T08:09:31.941Z,78.20
2023-05-25T08:10:31.869Z,78.20
2023-05-25T08:11:31.830Z,78.11
2023-05-25T08:12:46.993Z,78.20
2023-05-25T08:13:31.703Z,78.11
2023-05-25T08:14:31.652Z,78.11
2023-05-25T08:15:31.608Z,77.92
2023-05-25T08:16:31.589Z,77.92
2023-05-25T08:17:31.545Z,78.02
2023-05-25T08:18:31.462Z,78.20
2023-05-25T08:19:31.386Z,78.30
2023-05-25T08:20:31.394Z,78.30
2023-05-25T08:21:33.368Z,78.40
2023-05-25T08:22:31.230Z,78.40
2023-05-25T08:23:31.166Z,78.30
2023-05-25T08:24:31.121Z,78.30
2023-05-25T08:25:31.077Z,78.11
2023-05-25T08:26:41.710Z,78.69
2023-05-25T08:27:32.809Z,78.11
2023-05-25T08:28:30.901Z,78.40
2023-05-25T08:29:30.855Z,78.20
2023-05-25T08:30:30.800Z,78.97
2023-05-25T08:31:30.839Z,78.59
2023-05-25T08:32:30.705Z,78.49
2023-05-25T08:33:30.648Z,78.69
2023-05-25T08:34:30.584Z,78.88
2023-05-25T08:35:30.532Z,78.49
2023-05-25T08:36:30.483Z,78.49
2023-05-25T08:37:30.430Z,78.78
2023-05-25T08:38:30.367Z,78.30
2023-05-25T08:39:30.680Z,78.59
2023-05-25T08:40:30.261Z,79.16
2023-05-25T08:41:30.206Z,79.16
2023-05-25T08:42:30.170Z,79.16
2023-05-25T08:43:30.120Z,79.26
2023-05-25T08:44:30.053Z,79.07
2023-05-25T08:45:35.832Z,78.97
2023-05-25T08:46:29.950Z,78.69
2023-05-25T08:47:29.937Z,79.16
2023-05-25T08:48:40.114Z,79.07
2023-05-25T08:49:29.837Z,78.78
2023-05-25T08:50:29.735Z,78.97
2023-05-25T08:51:29.680Z,78.78
2023-05-25T08:52:29.627Z,79.07
2023-05-25T08:53:29.577Z,79.45
2023-05-25T08:54:29.561Z,79.16
2023-05-25T08:55:29.471Z,78.88
2023-05-25T08:56:29.416Z,79.45
2023-05-25T08:57:29.362Z,79.26
2023-05-25T08:58:29.303Z,79.26
2023-05-25T08:59:29.248Z,79.16
2023-05-25T09:00:29.200Z,79.36
2023-05-25T09:01:29.185Z,79.16
2023-05-25T09:02:29.129Z,79.16
2023-05-25T09:03:29.167Z,79.26
2023-05-25T09:04:28.988Z,79.45
2023-05-25T09:05:28.929Z,79.16
2023-05-25T09:06:28.880Z,79.26
2023-05-25T09:07:28.830Z,79.07
2023-05-25T09:08:28.800Z,79.26
2023-05-25T09:09:28.728Z,79.07
2023-05-25T09:10:28.672Z,79.55
2023-05-25T09:11:38.637Z,79.26
2023-05-25T09:12:28.563Z,79.74
2023-05-25T09:13:28.507Z,79.26
2023-05-25T09:14:28.482Z,79.93
2023-05-25T09:15:28.442Z,79.45
2023-05-25T09:16:28.373Z,79.74
2023-05-25T09:17:28.304Z,79.45
2023-05-25T09:18:28.264Z,79.74
2023-05-25T09:19:28.187Z,79.45
2023-05-25T09:20:28.170Z,79.36
2023-05-25T09:21:28.091Z,79.45
2023-05-25T09:22:28.030Z,79.26
2023-05-25T09:23:27.986Z,79.26
2023-05-25T09:24:27.924Z,79.36
2023-05-25T09:25:27.882Z,79.26
2023-05-25T09:26:27.820Z,79.07
2023-05-25T09:27:27.775Z,79.64
2023-05-25T09:28:27.971Z,79.45
2023-05-25T09:29:27.671Z,80.22
2023-05-25T09:30:27.607Z,79.74
2023-05-25T09:31:27.561Z,80.22
2023-05-25T09:32:27.646Z,79.55
2023-05-25T09:33:27.453Z,79.64
2023-05-25T09:34:27.408Z,79.64
2023-05-25T09:35:27.348Z,79.83
2023-05-25T09:36:27.374Z,79.83
2023-05-25T09:37:27.474Z,79.83
2023-05-25T09:38:27.661Z,79.64
2023-05-25T09:40:27.080Z,79.83
2023-05-25T09:41:27.046Z,80.07
2023-05-25T09:42:26.995Z,79.55
2023-05-25T09:43:40.588Z,79.49
2023-05-25T09:44:26.877Z,79.45
2023-05-25T09:45:26.817Z,79.45
2023-05-25T09:46:26.830Z,80.03
2023-05-25T09:47:26.738Z,80.22
2023-05-25T09:48:26.655Z,80.26
2023-05-25T09:49:26.611Z,80.16
2023-05-25T09:50:26.578Z,80.35
2023-05-25T09:51:26.512Z,80.26
2023-05-25T09:52:26.443Z,80.07
2023-05-25T09:53:26.394Z,80.07
2023-05-25T09:54:26.338Z,80.26
2023-05-25T09:55:31.696Z,80.74
2023-05-25T09:56:26.235Z,80.74
2023-05-25T09:57:26.184Z,81.12
2023-05-25T09:58:26.136Z,81.22
2023-05-25T09:59:26.079Z,81.22
2023-05-25T10:00:26.025Z,81.02
2023-05-25T10:01:25.970Z,81.12
2023-05-25T10:02:25.959Z,81.12
2023-05-25T10:03:25.887Z,81.02
2023-05-25T10:04:25.836Z,81.12
2023-05-25T10:05:25.752Z,81.12
2023-05-25T10:06:25.704Z,80.83
2023-05-25T10:07:25.648Z,81.31
2023-05-25T10:08:28.596Z,81.31
2023-05-25T10:09:25.544Z,81.12
2023-05-25T10:10:25.491Z,81.12
2023-05-25T10:11:25.438Z,81.02
2023-05-25T10:12:25.386Z,81.12
2023-05-25T10:13:25.358Z,81.12
2023-05-25T10:14:26.559Z,80.93
2023-05-25T10:15:25.227Z,81.12
2023-05-25T10:16:25.252Z,80.93
2023-05-25T10:17:25.197Z,81.31
2023-05-25T10:18:25.069Z,81.70
2023-05-25T10:19:25.031Z,81.31
2023-05-25T10:20:26.612Z,81.31
2023-05-25T10:21:24.910Z,81.22
2023-05-25T10:22:24.858Z,81.70
2023-05-25T10:23:24.809Z,81.60
2023-05-25T10:24:24.755Z,81.51
2023-05-25T10:25:24.699Z,81.31
2023-05-25T10:26:24.655Z,81.41
2023-05-25T10:27:27.484Z,81.51
2023-05-25T10:28:24.540Z,80.93
2023-05-25T10:29:24.495Z,81.22
2023-05-25T10:30:24.433Z,81.51
2023-05-25T10:31:24.435Z,81.51
2023-05-25T10:32:24.390Z,82.18
2023-05-25T10:33:24.285Z,81.93
2023-05-25T10:34:24.223Z,82.08
2023-05-25T10:35:24.167Z,82.03
2023-05-25T10:36:24.118Z,81.41
2023-05-25T10:37:24.054Z,82.08
2023-05-25T10:38:24.003Z,82.18
2023-05-25T10:39:23.950Z,81.41
2023-05-25T10:40:23.915Z,81.89
2023-05-25T10:41:23.855Z,82.18
2023-05-25T10:42:23.794Z,81.98
2023-05-25T10:43:23.749Z,82.18
2023-05-25T10:44:23.700Z,81.89
2023-05-25T10:45:23.642Z,82.12
2023-05-25T10:46:23.700Z,82.21
2023-05-25T10:47:23.602Z,82.12
2023-05-25T10:48:23.602Z,82.03
2023-05-25T10:49:23.421Z,82.31
2023-05-25T10:50:23.375Z,82.51
2023-05-25T10:51:23.342Z,82.31
2023-05-25T10:52:23.265Z,82.03
2023-05-25T10:53:23.217Z,82.03
2023-05-25T10:54:23.158Z,82.70
2023-05-25T10:55:23.107Z,82.70
2023-05-25T10:56:23.056Z,82.70
2023-05-25T10:57:22.999Z,82.41
2023-05-25T10:58:22.965Z,82.41
2023-05-25T10:59:22.902Z,82.41
2023-05-25T11:00:22.876Z,82.70
2023-05-25T11:01:22.894Z,82.51
2023-05-25T11:02:22.773Z,82.51
2023-05-25T11:03:22.684Z,82.60
2023-05-25T11:04:22.700Z,82.79
2023-05-25T11:05:22.581Z,82.51
2023-05-25T11:06:22.529Z,82.60
2023-05-25T11:07:22.478Z,82.51
2023-05-25T11:08:22.421Z,82.51
2023-05-25T11:09:22.371Z,82.98
2023-05-25T11:10:22.326Z,82.70
2023-05-25T11:11:22.289Z,82.31
2023-05-25T11:12:22.210Z,82.51
2023-05-25T11:13:22.154Z,82.79
2023-05-25T11:14:22.118Z,83.08
2023-05-25T11:15:22.064Z,82.70
2023-05-25T11:16:22.107Z,82.70
2023-05-25T11:17:22.005Z,82.60
2023-05-25T11:18:21.896Z,82.70
2023-05-25T11:19:21.845Z,82.70
2023-05-25T11:20:21.859Z,82.70
2023-05-25T11:21:21.757Z,82.79
2023-05-25T11:22:21.684Z,82.60
2023-05-25T11:23:21.632Z,82.70
2023-05-25T11:24:21.578Z,82.70
2023-05-25T11:25:21.526Z,82.79
2023-05-25T11:26:21.477Z,82.70
2023-05-25T11:27:21.424Z,82.89
2023-05-25T11:28:21.370Z,82.70
2023-05-25T11:29:21.321Z,82.98
2023-05-25T11:30:21.264Z,82.98
2023-05-25T11:31:21.259Z,82.51
2023-05-25T11:32:21.233Z,82.98
2023-05-25T11:33:21.113Z,82.70
2023-05-25T11:34:21.055Z,82.89
2023-05-25T11:35:21.012Z,83.18
2023-05-25T11:36:20.946Z,82.51
2023-05-25T11:37:20.903Z,82.60
2023-05-25T11:38:20.844Z,82.51
2023-05-25T11:39:23.060Z,82.60
2023-05-25T11:40:20.739Z,82.79
2023-05-25T11:41:20.688Z,82.79
2023-05-25T11:42:20.630Z,82.70
2023-05-25T11:43:20.585Z,82.89
2023-05-25T11:44:20.527Z,83.08
2023-05-25T11:45:20.475Z,82.89
2023-05-25T11:46:20.455Z,83.37
2023-05-25T11:47:20.367Z,83.37
2023-05-25T11:48:20.347Z,82.98
2023-05-25T11:49:20.274Z,82.98
2023-05-25T11:50:20.227Z,83.37
2023-05-25T11:51:20.165Z,83.08
2023-05-25T11:52:20.109Z,82.93
2023-05-25T11:53:20.057Z,82.98
2023-05-25T11:54:20.000Z,83.56
2023-05-25T11:55:19.949Z,83.65
2023-05-25T11:56:33.678Z,83.56
2023-05-25T11:57:19.850Z,83.56
2023-05-25T11:58:19.790Z,83.37
2023-05-25T11:59:19.739Z,83.37
2023-05-25T12:00:19.678Z,83.27
2023-05-25T12:01:19.633Z,83.22
2023-05-25T12:02:19.571Z,83.47
2023-05-25T12:03:19.603Z,83.56
2023-05-25T12:04:21.132Z,83.41
2023-05-25T12:05:19.500Z,83.31
2023-05-25T12:06:19.365Z,83.37
2023-05-25T12:07:19.313Z,83.31
2023-05-25T12:08:19.272Z,83.65
2023-05-25T12:09:19.210Z,83.27
2023-05-25T12:10:19.160Z,83.41
2023-05-25T12:11:19.100Z,83.37
2023-05-25T12:12:19.050Z,83.37
2023-05-25T12:13:18.999Z,83.27
2023-05-25T12:14:18.955Z,83.27
2023-05-25T12:15:20.672Z,83.51
2023-05-25T12:16:18.862Z,83.37
2023-05-25T12:17:18.816Z,83.18
2023-05-25T12:18:18.740Z,83.37
2023-05-25T12:19:18.685Z,83.41
2023-05-25T12:20:18.712Z,83.60
2023-05-25T12:21:18.591Z,83.31
2023-05-25T12:22:18.529Z,83.22
2023-05-25T12:23:18.477Z,83.31
2023-05-25T12:24:18.426Z,83.89
2023-05-25T12:25:18.410Z,83.70
2023-05-25T12:26:18.330Z,84.08
2023-05-25T12:27:18.267Z,83.98
2023-05-25T12:28:18.213Z,83.98
2023-05-25T12:29:18.163Z,83.89
2023-05-25T12:30:18.110Z,83.89
2023-05-25T12:31:18.104Z,84.08
2023-05-25T12:32:18.001Z,83.80
2023-05-25T12:33:18.029Z,83.80
2023-05-25T12:34:17.899Z,83.80
2023-05-25T12:35:17.845Z,83.80
2023-05-25T12:36:17.792Z,83.98
2023-05-25T12:37:17.746Z,83.80
2023-05-25T12:38:17.742Z,84.27
2023-05-25T12:39:17.644Z,84.27
2023-05-25T12:40:17.586Z,84.27
2023-05-25T12:41:17.534Z,83.98
2023-05-25T12:42:17.477Z,84.47
2023-05-25T12:43:17.753Z,83.98
2023-05-25T12:44:17.399Z,83.98
2023-05-25T12:45:17.325Z,83.98
2023-05-25T12:46:17.318Z,83.98
2023-05-25T12:47:17.227Z,83.89
2023-05-25T12:48:17.233Z,83.98
2023-05-25T12:49:17.115Z,84.27
2023-05-25T12:50:17.064Z,83.89
2023-05-25T12:51:17.020Z,84.08
2023-05-25T12:52:16.960Z,83.98
2023-05-25T12:53:16.941Z,83.89
2023-05-25T12:54:16.870Z,84.08
2023-05-25T12:55:17.197Z,83.98
2023-05-25T12:56:16.753Z,84.47
2023-05-25T12:57:16.706Z,84.18
2023-05-25T12:58:16.659Z,84.08
2023-05-25T12:59:16.596Z,84.37
2023-05-25T13:00:16.570Z,83.98
2023-05-25T13:01:16.493Z,84.37
2023-05-25T13:02:16.572Z,84.08
2023-05-25T13:03:16.431Z,84.27
2023-05-25T13:04:16.326Z,84.08
2023-05-25T13:05:16.312Z,83.80
2023-05-25T13:06:16.236Z,83.89